Aérodrome :
LOGIN :

S'inscrire | Disclaimer

   EN    FR    IT 

 










Légende :    VFR   VFR Marginal   IFR   IFR Intensif   IFR Très Intensif
Visi : 
Plafond : 
>= 8 km
>= 3000ft
5 à 8 km
1000 à 3000 ft
1500m à 5 km
500 à 1000 ft
800 à 1500m
200 à 500 ft
< 800m
< 200 ft
Symboles :   Orages  Brouillard  Fortes neiges  Fortes précipitations  Vent > 20 kt
SIGMETs :   Divers  Orages  Givrage  Turbulence  Onde Orograph.  Cendres Volcan.






- Altitude de l'aérodrome : 1504 ft
- Code IATA : PNA


LEPP - Noain Pamplona

DERNIER METAR :
  • 021200Z 33013KT 290V010 9999 SCT035 22/15 Q1018

METARs EXPIRÉS :
  • 021130Z 32012KT 290V360 9999 FEW025 SCT035 22/14 Q1018
  • 021100Z 32012KT 300V360 9999 FEW025 SCT030 21/14 Q1018
  • 021030Z 31009KT 280V350 9999 FEW025 SCT030 21/14 Q1018
  • 021000Z 31011KT 280V340 9999 FEW025 SCT030 20/14 Q1018
  • 020930Z 32011KT 9999 FEW025 BKN030 20/14 Q1018

TAF TAF LEPP
Valide du 02 à 09h jusqu'au 03 à 09h UTC


020800Z 0209/0309 36014KT 9999 FEW015 SCT025 TX24/0213Z TN12/0305Z
TEMPO 0211/0220 34018G30KT
TEMPO 0222/0307 30008KT



MET'MAP, la Météo Aéronautique d'un coup d'oeil ! - Copyright ORBIFLY Décembre 2007 - Disclaimer

ORBIFLY MET'MAP TEAM :

Programmation & Développement : Alexandra Zaïnal
Sur une idée originale de : Baudouin d'Aumeries
Assistance à la programmation : Marc-Olivier Méhu
Soutien technique & logistique : Manuel Goepfert

Contact : metmap@orbifly.com




SOURCES & CREDITS :

   NOAA